Virtual LH

Virtual LH. There's no better way to fly
Since 2013.



AIRPORT MAP

METAR AND TAF INFORMATION

METAR FOR LIRN
ADDS - METARS form results

(1017 UTC 21 January 2019)
Data provider http://aviationweather.gov/metar/data/
 
METAR text: LIRN 210950Z 36004KT 320V050 9999 -RA BKN050 11/07 Q1012 NOSIG
Conditions at: LIRN (NAPLES/CAPODICHI, IT) observed 0950 UTC 21 January 2019
Temperature: 11.0°C (52°F)
Dewpoint: 7.0°C (45°F) [RH = 76%]
Pressure (altimeter): 29.88 inches Hg (1012.0 mb)
Winds: from the N (360 degrees) at 5 MPH (4 knots; 2.1 m/s)
Visibility: 6 or more miles (10+ km)
Ceiling: 5000 feet AGL
Clouds: broken clouds at 5000 feet AGL
Weather: -RA  (light rain)

METAR text: LIRN 210920Z 03004KT 9999 -RA BKN045 10/06 Q1012 NOSIG
Conditions at: LIRN (NAPLES/CAPODICHI, IT) observed 0920 UTC 21 January 2019
Temperature: 10.0°C (50°F)
Dewpoint: 6.0°C (43°F) [RH = 76%]
Pressure (altimeter): 29.88 inches Hg (1012.0 mb)
Winds: from the NNE (30 degrees) at 5 MPH (4 knots; 2.1 m/s)
Visibility: 6 or more miles (10+ km)
Ceiling: 4500 feet AGL
Clouds: broken clouds at 4500 feet AGL
Weather: -RA  (light rain)

Forecast for: COR
Text: TAF COR LIRN 210524Z 2106/2206 04008KT 8000 BKN040
Forecast period: 0600 UTC 21 January 2019 to 0600 UTC 22 January 2019
Forecast type: FROM: standard forecast or significant change
Winds: from the NE (40 degrees) at 9 MPH (8 knots; 4.1 m/s)
Visibility: 5 miles (8 km)
Ceiling: 4000 feet AGL
Clouds: broken clouds at 4000 feet AGL
Weather: no significant weather forecast for this period
Text: TEMPO 2106/2116 SHRA
Forecast period: 0600 to 1600 UTC 21 January 2019
Forecast type: TEMPORARY: The following changes expected for less than half the time period
Visibility: missing
Ceiling: unknown
Clouds: missing
Weather: SHRA  (rain showers)
Text: TEMPO 2122/2206 TSRA
Forecast period: 2200 UTC 21 January 2019 to 0600 UTC 22 January 2019
Forecast type: TEMPORARY: The following changes expected for less than half the time period
Visibility: missing
Ceiling: unknown
Clouds: missing
Weather: TSRA  (rain associated with thunderstorm(s))

RUNWAY INFORMATION

Runway 06 Runway length 8622 ft Runway width 148 ft
Runway elevation 284 ft Runway displaced threshold 1309 ft Runway heading 58
Runway 24 Runway length 8622 ft Runway width 148 ft
Runway elevation 223 ft Runway displaced threshold 624 ft Runway heading 238

AIRPORT FREQUENCIES

Type APP Name NAPOLI RAD Frequency 124.35 MHZ
Type ATIS Name ATIS Frequency 135.975 MHZ
Type DIR Name NAPOLI DIR Frequency 120.95 MHZ
Type GCCD Name NAPOLI GND Frequency 121.9 MHZ
Type OPS Name USN BASE O Frequency 118.275 MHZ
Type PMSV Name PMSV METRO Frequency 34.1 MHZ
Type POST Name ATOC Frequency 118.275 MHZ
Type TWR Name NAPOLI TWR Frequency 118.5 MHZ

AIRPORT NEAR NAVIGATION AIDS

Type VOR-DME Name Pomigliano Frequency 117850 KHZ
Type NDB Name Pomigliano Frequency 351 KHZ